• Join FlightAware (Why Join?)
  • Login
  • US Flag GB Flag 
21:37 EDT


 

Airport Tracker/Info


-or-


 

Live Flight TrackerFlight Track Log ✈ N511TA ✈ 08-May-2013 ✈ KIAD - KLFT

Flight Track Log - Related Links

Times and Time Zones

All times are in EDT time to prevent confusion due to time zone crossing. See the N511TA flight status page for this flight to view local times or setup timezone preferences in your user account.

Time Position Orientation Groundspeed Altitude Reporting Facility
EDT Latitude Longitude Course Direction KTS MPH feet Rate Location/Type
15:19 38.9333 -77.5333 218° Southwest 159 183 2,300  Level Potomac TRACON
15:20 38.9167 -77.5833 247° West 160 184 4,000 1,320 Climbing Potomac TRACON
15:21 38.9167 -77.6500 270° West 181 208 4,900 600 Climbing Potomac TRACON
15:22 38.9017 -77.6775 235° Southwest 202 232 4,900  Level Washington Center
15:23 38.8403 -77.7239 210° Southwest 237 273 4,900 60 Level Washington Center
15:24 38.7897 -77.7569 207° Southwest 226 260 5,100 1,020 Climbing Washington Center
15:25 38.6482 -77.8352 218° Southwest  Level FlightAware Approximate
15:25 38.7433 -77.7875 207° Southwest 196 226 7,000  Level Washington Center
15:26 38.7008 -77.8208 211° Southwest 170 196 8,500 1,500 Climbing Washington Center
15:27 38.6608 -77.8517 211° Southwest 171 197 10,100 1,620 Climbing Washington Center
15:28 38.6267 -77.8878 220° Southwest 178 205 11,700 1,620 Climbing Washington Center
15:29 38.5986 -77.9372 234° Southwest 178 205 13,300 1,380 Climbing Washington Center
15:30 38.5683 -77.9894 233° Southwest 178 205 14,600 1,140 Climbing Washington Center
15:31 38.5403 -78.0417 236° Southwest 178 205 15,600 600 Climbing Washington Center
15:32 38.5144 -78.0858 233° Southwest 183 211 15,900 180 Climbing Washington Center
15:33 38.4647 -78.1692 233° Southwest 218 251 16,000 480 Climbing Washington Center
15:34 38.4236 -78.2367 232° Southwest 241 277 16,900 1,440 Climbing Washington Center
15:35 38.3889 -78.2964 233° Southwest 234 269 18,900 1,620 Climbing Washington Center
15:36 38.3586 -78.3481 233° Southwest 207 238 20,300 1,380 Climbing Washington Center
15:37 38.3281 -78.3972 232° Southwest 193 222 21,700 1,380 Climbing Washington Center
15:38 38.2997 -78.4492 235° Southwest 188 216 23,100 1,140 Climbing Washington Center
15:39 38.2717 -78.4956 232° Southwest 183 211 24,100 960 Climbing Washington Center
15:40 38.2453 -78.5450 236° Southwest 178 205 25,100 900 Climbing Washington Center
15:41 38.2150 -78.5939 232° Southwest 178 205 26,000 420 Climbing Washington Center
15:42 38.1822 -78.6508 234° Southwest 185 213 26,000  Level Washington Center
15:43 38.1453 -78.7125 233° Southwest 210 242 26,000  Level Washington Center
15:44 38.1061 -78.7742 231° Southwest 236 272 26,000  Level Washington Center
15:45 38.0644 -78.8436 233° Southwest 244 281 26,000  Level Washington Center
15:46 38.0253 -78.9106 233° Southwest 244 281 26,000  Level Washington Center
15:47 37.9836 -78.9800 233° Southwest 244 281 26,000  Level Washington Center
15:48 37.9378 -79.0542 232° Southwest 244 281 26,000  Level Washington Center
15:49 37.8961 -79.1233 233° Southwest 244 281 26,000  Level Washington Center
15:50 37.8625 -79.1953 239° Southwest 244 281 26,000  Level Washington Center
15:51 37.8250 -79.2672 237° Southwest 244 281 26,000  Level Washington Center
15:52 37.7939 -79.3314 238° Southwest 244 281 26,000  Level Washington Center
15:53 37.7561 -79.4031 236° Southwest 244 281 26,000  Level Washington Center
15:54 37.7225 -79.4750 239° Southwest 244 281 26,000  Level Washington Center
15:55 37.6847 -79.5439 235° Southwest 244 281 26,000  Level Washington Center
15:56 37.6467 -79.6231 239° Southwest 244 281 26,000  Level Washington Center
15:57 37.6133 -79.6842 235° Southwest 244 281 26,000  Level Washington Center
15:58 37.5753 -79.7608 238° Southwest 244 281 26,000  Level Washington Center
15:59 37.5439 -79.8219 237° Southwest 244 281 26,000  Level Washington Center
16:00 37.5078 -79.8986 239° Southwest 249 287 26,000  Level Washington Center
16:01 37.4697 -79.9722 237° Southwest 244 281 26,000  Level Washington Center
16:02 37.4336 -80.0433 237° Southwest 244 281 26,000  Level Washington Center
16:03 37.3789 -80.1478 237° Southwest 241 277 26,000  Level Atlanta Center
16:04 37.3397 -80.2200 236° Southwest 236 272 26,000  Level Atlanta Center
16:05 37.3061 -80.2869 238° Southwest 241 277 26,000  Level Atlanta Center
16:06 37.2708 -80.3592 238° Southwest 241 277 26,000  Level Atlanta Center
16:07 37.2353 -80.4258 236° Southwest 241 277 26,000  Level Atlanta Center
16:08 37.2017 -80.4872 236° Southwest 241 277 26,000  Level Atlanta Center
16:09 37.1681 -80.5539 238° Southwest 241 277 26,000  Level Atlanta Center
16:10 37.1328 -80.6258 238° Southwest 246 283 26,000  Level Atlanta Center
16:11 37.0950 -80.6950 237° Southwest 246 283 26,000  Level Atlanta Center
16:12 37.0848 -80.7175 237° Southwest  Level FlightAware Approximate
16:12 37.0553 -80.7722 237° Southwest 246 283 26,000  Level Atlanta Center
16:13 37.0178 -80.8439 237° Southwest 246 283 26,000  Level Atlanta Center
16:14 36.9797 -80.9131 235° Southwest 246 283 26,000  Level Atlanta Center
16:15 36.9442 -80.9844 238° Southwest 246 283 26,000  Level Atlanta Center
16:17 36.8959 -81.0757 237° Southwest  Level FlightAware Approximate
16:17 36.8722 -81.1197 237° Southwest 246 283 26,000  Level Atlanta Center
16:18 36.8364 -81.1911 238° Southwest 246 283 26,000  Level Atlanta Center
16:19 36.7983 -81.2625 236° Southwest 246 283 26,000  Level Atlanta Center
16:20 36.7667 -81.3283 239° Southwest 241 277 26,000  Level Atlanta Center
16:21 36.7264 -81.4022 236° Southwest 241 277 26,000  Level Atlanta Center
16:22 36.6883 -81.4758 237° Southwest 251 289 26,000  Level Atlanta Center
16:23 36.6464 -81.5550 237° Southwest 251 289 26,000  Level Atlanta Center
16:24 36.6081 -81.6283 237° Southwest 251 289 26,000  Level Atlanta Center
16:25 36.5678 -81.6994 235° Southwest 251 289 26,000  Level Atlanta Center
16:26 36.5294 -81.7731 237° Southwest 251 289 26,000  Level Atlanta Center
16:27 36.4911 -81.8439 236° Southwest 251 289 26,000  Level Atlanta Center
16:28 36.4508 -81.9144 235° Southwest 251 289 26,000  Level Atlanta Center
16:29 36.4125 -81.9878 237° Southwest 256 295 26,000  Level Atlanta Center
16:30 36.3758 -82.0533 235° Southwest 261 300 26,000  Level Atlanta Center
16:31 36.3375 -82.1264 237° Southwest 261 300 26,000  Level Atlanta Center
16:32 36.2989 -82.1994 237° Southwest 261 300 26,000  Level Atlanta Center
16:33 36.2583 -82.2725 235° Southwest 261 300 26,000  Level Atlanta Center
16:34 36.2197 -82.3428 236° Southwest 256 295 26,000  Level Atlanta Center
16:35 36.1811 -82.4156 237° Southwest 262 302 26,000  Level Atlanta Center
16:36 36.1403 -82.4883 235° Southwest 262 302 26,000  Level Atlanta Center
16:37 36.1036 -82.5583 237° Southwest 257 296 26,000  Level Atlanta Center
16:38 36.0628 -82.6336 236° Southwest 257 296 26,000  Level Atlanta Center
16:39 36.0239 -82.7064 237° Southwest 257 296 26,000  Level Atlanta Center
16:40 35.9808 -82.7789 234° Southwest 257 296 26,000  Level Atlanta Center
16:41 35.9419 -82.8511 236° Southwest 262 302 26,000  Level Atlanta Center
16:42 35.9031 -82.9261 237° Southwest 262 302 26,000  Level Atlanta Center
16:43 35.8578 -83.0011 233° Southwest 262 302 26,000  Level Atlanta Center
16:44 35.8189 -83.0758 237° Southwest 257 296 26,000  Level Atlanta Center
16:45 35.7797 -83.1456 235° Southwest 257 296 26,000  Level Atlanta Center
16:46 35.7406 -83.2200 237° Southwest 262 302 26,000  Level Atlanta Center
16:47 35.6992 -83.2919 235° Southwest 257 296 26,000  Level Atlanta Center
16:48 35.6581 -83.3692 237° Southwest 262 302 26,000  Level Atlanta Center
16:50 35.6070 -83.4549 234° Southwest  Level FlightAware Approximate
16:50 35.5753 -83.5153 234° Southwest 262 302 26,000  Level Atlanta Center
16:51 35.5339 -83.5869 235° Southwest 262 302 26,000  Level Atlanta Center
16:52 35.4903 -83.6639 235° Southwest 262 302 26,000  Level Atlanta Center
16:53 35.4489 -83.7353 235° Southwest 267 307 26,000  Level Atlanta Center
16:54 35.4072 -83.8094 235° Southwest 267 307 26,000  Level Atlanta Center
16:55 35.3656 -83.8808 234° Southwest 267 307 26,000  Level Atlanta Center
16:56 35.3239 -83.9547 235° Southwest 267 307 26,000  Level Atlanta Center
16:57 35.2822 -84.0286 235° Southwest 267 307 26,000  Level Atlanta Center
16:58 35.2406 -84.1022 235° Southwest 267 307 26,000  Level Atlanta Center
16:59 35.1986 -84.1761 235° Southwest 267 307 26,000  Level Atlanta Center
17:00 35.1569 -84.2522 236° Southwest 267 307 26,000  Level Atlanta Center
17:01 35.1128 -84.3256 234° Southwest 267 307 26,000  Level Atlanta Center
17:02 35.0689 -84.4017 235° Southwest 267 307 26,000  Level Atlanta Center
17:03 35.0311 -84.4675 235° Southwest 267 307 26,000  Level Atlanta Center
17:04 34.9869 -84.5408 234° Southwest 267 307 26,000  Level Atlanta Center
17:05 34.9428 -84.6164 235° Southwest 267 307 26,000  Level Atlanta Center
17:06 34.9008 -84.6897 235° Southwest 267 307 26,000  Level Atlanta Center
17:07 34.8586 -84.7653 236° Southwest 267 307 26,000  Level Atlanta Center
17:08 34.8144 -84.8383 234° Southwest 267 307 26,000  Level Atlanta Center
17:09 34.7722 -84.9111 235° Southwest 267 307 26,000  Level Atlanta Center
17:10 34.7278 -84.9839 233° Southwest 272 313 26,000  Level Atlanta Center
17:11 34.6853 -85.0592 236° Southwest 267 307 26,000  Level Atlanta Center
17:12 34.6453 -85.1294 235° Southwest 267 307 26,000  Level Atlanta Center
17:13 34.6006 -85.2022 233° Southwest 267 307 26,000  Level Atlanta Center
17:14 34.5581 -85.2772 235° Southwest 272 313 26,000  Level Atlanta Center
17:15 34.5136 -85.3472 232° Southwest 272 313 26,000  Level Atlanta Center
17:16 34.4711 -85.4194 234° Southwest 267 307 26,000  Level Atlanta Center
17:17 34.4306 -85.4919 236° Southwest 267 307 26,000  Level Atlanta Center
17:18 34.3794 -85.5717 232° Southwest 267 307 26,000  Level Atlanta Center
17:19 34.3453 -85.6414 239° Southwest 272 313 26,000  Level Atlanta Center
17:20 34.2942 -85.7208 232° Southwest 272 313 26,000  Level Atlanta Center
17:21 34.2514 -85.7956 235° Southwest 272 313 26,000  Level Atlanta Center
17:22 34.2086 -85.8625 232° Southwest 272 313 26,000  Level Atlanta Center
17:23 34.1658 -85.9342 234° Southwest 267 307 26,000  Level Atlanta Center
17:24 34.1231 -86.0036 233° Southwest 267 307 26,000  Level Atlanta Center
17:25 34.0781 -86.0778 234° Southwest 267 307 26,000  Level Atlanta Center
17:26 34.0328 -86.1494 233° Southwest 267 307 26,000  Level Atlanta Center
17:27 33.9878 -86.2233 234° Southwest 267 307 26,000  Level Atlanta Center
17:28 33.9469 -86.2875 233° Southwest 267 307 26,000  Level Atlanta Center
17:29 33.9039 -86.3589 234° Southwest 267 307 26,000  Level Atlanta Center
17:30 33.8608 -86.4353 236° Southwest 273 314 26,000  Level Atlanta Center
17:31 33.8175 -86.5067 234° Southwest 273 314 26,000  Level Atlanta Center
17:32 33.7722 -86.5778 233° Southwest 273 314 26,000  Level Atlanta Center
17:33 33.7269 -86.6514 234° Southwest 273 314 26,000  Level Atlanta Center
17:34 33.6817 -86.7225 233° Southwest 273 314 26,000  Level Atlanta Center
17:35 33.6381 -86.7958 234° Southwest 273 314 26,000  Level Atlanta Center
17:36 33.5947 -86.8669 234° Southwest 273 314 26,000  Level Atlanta Center
17:37 33.5494 -86.9378 233° Southwest 273 314 26,000  Level Atlanta Center
17:38 33.5058 -87.0083 233° Southwest 273 314 26,000  Level Atlanta Center
17:39 33.4603 -87.0817 233° Southwest 273 314 26,000  Level Atlanta Center
17:40 33.4169 -87.1497 233° Southwest 268 308 26,000  Level Atlanta Center
17:41 33.3733 -87.2228 234° Southwest 268 308 26,000  Level Atlanta Center
17:42 33.3275 -87.2933 232° Southwest 268 308 26,000  Level Atlanta Center
17:43 33.2839 -87.3636 233° Southwest 268 308 26,000  Level Atlanta Center
17:44 33.2381 -87.4364 233° Southwest 268 308 26,000  Level Atlanta Center
17:45 33.1944 -87.5092 234° Southwest 268 308 26,000  Level Atlanta Center
17:46 33.1486 -87.5792 232° Southwest 268 308 26,000  Level Atlanta Center
17:47 33.1047 -87.6519 234° Southwest 268 308 26,000  Level Atlanta Center
17:48 33.0514 -87.7350 233° Southwest 282 325 26,000  Level Memphis Center
17:49 33.0047 -87.8083 233° Southwest 282 325 26,000  Level Memphis Center
17:50 32.9603 -87.8814 234° Southwest 282 325 26,000  Level Memphis Center
17:51 32.9200 -87.9517 236° Southwest 276 318 26,000  Level Memphis Center
17:52 32.8733 -88.0222 232° Southwest 276 318 26,000  Level Memphis Center
17:53 32.8286 -88.0928 233° Southwest 276 318 26,000  Level Memphis Center
17:54 32.7819 -88.1631 232° Southwest 276 318 26,000  Level Memphis Center
17:55 32.7394 -88.2333 234° Southwest 276 318 26,000  Level Memphis Center
17:56 32.6883 -88.3111 232° Southwest 279 321 26,000 -60 Level Memphis Center
17:57 32.6517 -88.3686 233° Southwest 279 321 25,900  Descending Memphis Center
17:58 32.5967 -88.4536 232° Southwest 279 321 26,000  Climbing Memphis Center
17:59 32.5497 -88.5236 232° Southwest 279 321 26,000  Level Memphis Center
18:00 32.5050 -88.5936 233° Southwest 279 321 26,000  Level Memphis Center
18:01 32.4600 -88.6658 234° Southwest 279 321 26,000  Level Memphis Center
18:02 32.4150 -88.7356 233° Southwest 279 321 26,000  Level Memphis Center
18:03 32.3700 -88.8053 233° Southwest 279 321 26,000  Level Memphis Center
18:04 32.3208 -88.8775 231° Southwest 279 321 26,000  Level Memphis Center
18:05 32.2736 -88.9494 232° Southwest 279 321 26,000  Level Memphis Center
18:06 32.2264 -89.0214 232° Southwest 279 321 26,000  Level Memphis Center
18:07 32.1789 -89.0908 231° Southwest 279 321 26,000  Level Memphis Center
18:08 32.1339 -89.1625 233° Southwest 279 321 26,000  Level Memphis Center
18:09 32.0864 -89.2319 231° Southwest 285 328 26,000  Level Memphis Center
18:10 32.0392 -89.3036 232° Southwest 280 322 26,000  Level Memphis Center
18:11 31.9917 -89.3753 232° Southwest 280 322 26,000  Level Memphis Center
18:12 31.9442 -89.4467 232° Southwest 280 322 26,000  Level Memphis Center
18:13 31.8986 -89.5181 233° Southwest 280 322 26,000  Level Memphis Center
18:15 31.8358 -89.6106 231° Southwest 273 314 26,000  Level Houston Center
18:16 31.7878 -89.6839 232° Southwest 275 316 26,000  Level Houston Center
18:17 31.7406 -89.7522 231° Southwest 272 313 26,000  Level Houston Center
18:18 31.6853 -89.8367 232° Southwest 273 314 26,000  Level Houston Center
18:19 31.6397 -89.9053 232° Southwest 270 311 26,000  Level Houston Center
18:20 31.5925 -89.9742 231° Southwest 274 315 26,000  Level Houston Center
18:21 31.5475 -90.0425 232° Southwest 268 308 26,000  Level Houston Center
18:22 31.5006 -90.1103 231° Southwest 269 310 26,000  Level Houston Center
18:23 31.4453 -90.1928 232° Southwest 270 311 26,000  Level Houston Center
18:24 31.4003 -90.2600 232° Southwest 266 306 26,000  Level Houston Center
18:25 31.3550 -90.3275 232° Southwest 266 306 26,000  Level Houston Center
18:26 31.3089 -90.3936 231° Southwest 264 304 26,000  Level Houston Center
18:27 31.2639 -90.4611 232° Southwest 266 306 26,000 -360 Level Houston Center
18:28 31.2181 -90.5303 232° Southwest 270 311 25,300 -780 Descending Houston Center
18:29 31.1581 -90.6167 231° Southwest 284 327 24,400 -660 Descending Houston Center
18:30 31.1092 -90.6878 231° Southwest 285 328 24,000 -660 Descending Houston Center
18:31 31.0606 -90.7583 231° Southwest 282 325 23,100 -840 Descending Houston Center
18:33 31.0122 -90.8275 231° Southwest 278 320 22,300 -960 Descending Houston Center
18:34 30.9653 -90.8969 232° Southwest 276 318 21,200 -1,200 Descending Houston Center
18:35 30.9078 -90.9806 231° Southwest 278 320 19,900 -1,200 Descending Houston Center
18:36 30.8597 -91.0492 231° Southwest 275 316 18,700 -1,140 Descending Houston Center
18:37 30.8156 -91.1119 231° Southwest 276 318 17,600 -1,440 Descending Houston Center
18:38 30.7581 -91.1969 232° Southwest 277 319 15,800 -1,500 Descending Houston Center
18:39 30.7150 -91.2589 231° Southwest 279 321 14,500 -1,620 Descending Houston Center
18:40 30.6564 -91.3428 231° Southwest 279 321 12,500 -1,740 Descending Houston Center
18:41 30.6089 -91.4139 232° Southwest 279 321 11,000 -780 Descending Houston Center
18:42 30.5625 -91.4747 228° Southwest 275 316 10,900 -60 Descending Houston Center
18:43 30.5200 -91.5364 231° Southwest 257 296 10,900 -780 Level Houston Center
18:44 30.4692 -91.6125 232° Southwest 249 287 9,400 -1,380 Descending Houston Center
18:45 30.4303 -91.6672 231° Southwest 253 291 8,100 -1,500 Descending Houston Center
18:46 30.3767 -91.7411 230° Southwest 262 302 6,400 -1,560 Descending Houston Center
18:47 30.3344 -91.8039 232° Southwest 250 288 4,900 -1,500 Descending Houston Center
18:48 30.2981 -91.8678 237° Southwest 243 280 3,400 -900 Descending Houston Center
18:49 30.2653 -91.9317 239° Southwest 242 278 3,100 -300 Descending Houston Center
18:51 30.2000 -91.9833 235° Southwest  Level FlightAware Approximate
18:58 30.2050 -91.9877 235° Southwest  Level Estimated
18:59 30.2000 -91.9833 235° Southwest  Level FlightAware Approximate
19:00 30.2050 -91.9877 235° Southwest  Level Estimated